sensor_id;sensor_type;location;lat;lon;timestamp;pressure;altitude;pressure_sealevel;temperature;humidity
76122;BME280;64853;53.200;6.080;2022-12-29T00:00:48;99631.91;;;19.85;40.17
76122;BME280;64853;53.200;6.080;2022-12-29T00:05:41;99620.34;;;19.83;39.92
76122;BME280;64853;53.200;6.080;2022-12-29T00:10:33;99629.31;;;19.80;40.07
76122;BME280;64853;53.200;6.080;2022-12-29T00:15:24;99622.50;;;19.77;40.13
76122;BME280;64853;53.200;6.080;2022-12-29T00:20:33;99615.66;;;19.75;39.99
76122;BME280;64853;53.200;6.080;2022-12-29T00:25:43;99617.13;;;19.72;39.83
76122;BME280;64853;53.200;6.080;2022-12-29T00:30:59;99605.59;;;19.70;40.05
76122;BME280;64853;53.200;6.080;2022-12-29T00:36:12;99603.47;;;19.67;39.81
76122;BME280;64853;53.200;6.080;2022-12-29T00:41:07;99589.19;;;19.65;40.24
76122;BME280;64853;53.200;6.080;2022-12-29T00:46:16;99593.91;;;19.64;40.39
76122;BME280;64853;53.200;6.080;2022-12-29T00:51:08;99584.47;;;19.57;40.45
76122;BME280;64853;53.200;6.080;2022-12-29T00:55:59;99586.59;;;19.60;40.16
76122;BME280;64853;53.200;6.080;2022-12-29T01:00:52;99590.50;;;19.59;39.99
76122;BME280;64853;53.200;6.080;2022-12-29T01:05:44;99582.50;;;19.57;40.45
76122;BME280;64853;53.200;6.080;2022-12-29T01:10:35;99584.78;;;19.55;40.21
76122;BME280;64853;53.200;6.080;2022-12-29T01:15:27;99570.19;;;19.55;40.22
76122;BME280;64853;53.200;6.080;2022-12-29T01:20:19;99573.59;;;19.52;40.16
76122;BME280;64853;53.200;6.080;2022-12-29T01:25:11;99576.69;;;19.50;40.25
76122;BME280;64853;53.200;6.080;2022-12-29T01:30:03;99559.28;;;19.50;40.04
76122;BME280;64853;53.200;6.080;2022-12-29T01:34:55;99545.81;;;19.48;40.41
76122;BME280;64853;53.200;6.080;2022-12-29T01:39:48;99541.75;;;19.45;40.36
76122;BME280;64853;53.200;6.080;2022-12-29T01:44:51;99545.19;;;19.42;40.16
76122;BME280;64853;53.200;6.080;2022-12-29T01:49:43;99552.66;;;19.42;40.22
76122;BME280;64853;53.200;6.080;2022-12-29T01:54:36;99539.19;;;19.40;40.23
76122;BME280;64853;53.200;6.080;2022-12-29T01:59:34;99532.03;;;19.39;40.33
76122;BME280;64853;53.200;6.080;2022-12-29T02:04:31;99528.78;;;19.37;40.05
76122;BME280;64853;53.200;6.080;2022-12-29T02:09:24;99525.53;;;19.35;40.01
76122;BME280;64853;53.200;6.080;2022-12-29T02:14:16;99530.25;;;19.35;40.41
76122;BME280;64853;53.200;6.080;2022-12-29T02:19:37;99536.09;;;19.33;40.15
76122;BME280;64853;53.200;6.080;2022-12-29T02:25:00;99512.69;;;19.30;40.24
76122;BME280;64853;53.200;6.080;2022-12-29T02:30:06;99500.56;;;19.23;40.53
76122;BME280;64853;53.200;6.080;2022-12-29T02:35:06;99509.78;;;19.27;40.34
76122;BME280;64853;53.200;6.080;2022-12-29T02:40:06;99532.22;;;19.25;40.35
76122;BME280;64853;53.200;6.080;2022-12-29T02:45:04;99520.38;;;19.25;40.46
76122;BME280;64853;53.200;6.080;2022-12-29T02:50:01;99515.50;;;19.22;40.33
76122;BME280;64853;53.200;6.080;2022-12-29T02:54:54;99508.03;;;19.14;40.60
76122;BME280;64853;53.200;6.080;2022-12-29T02:59:47;99524.09;;;19.20;40.71
76122;BME280;64853;53.200;6.080;2022-12-29T03:05:03;99514.50;;;19.18;40.62
76122;BME280;64853;53.200;6.080;2022-12-29T03:10:01;99494.72;;;19.16;40.57
76122;BME280;64853;53.200;6.080;2022-12-29T03:14:59;99482.41;;;19.04;40.54
76122;BME280;64853;53.200;6.080;2022-12-29T03:20:16;99486.63;;;19.10;40.35
76122;BME280;64853;53.200;6.080;2022-12-29T03:25:13;99491.31;;;19.10;40.41
76122;BME280;64853;53.200;6.080;2022-12-29T03:30:07;99493.44;;;19.04;40.53
76122;BME280;64853;53.200;6.080;2022-12-29T03:34:59;99489.19;;;19.07;40.37
76122;BME280;64853;53.200;6.080;2022-12-29T03:39:53;99480.91;;;19.07;40.57
76122;BME280;64853;53.200;6.080;2022-12-29T03:44:45;99488.25;;;19.03;40.48
76122;BME280;64853;53.200;6.080;2022-12-29T03:49:37;99499.63;;;19.01;40.61
76122;BME280;64853;53.200;6.080;2022-12-29T03:54:28;99496.84;;;19.01;40.35
76122;BME280;64853;53.200;6.080;2022-12-29T03:59:21;99499.63;;;19.01;40.45
76122;BME280;64853;53.200;6.080;2022-12-29T04:04:13;99502.22;;;18.98;40.30
76122;BME280;64853;53.200;6.080;2022-12-29T04:09:04;99497.03;;;18.96;40.67
76122;BME280;64853;53.200;6.080;2022-12-29T04:13:56;99495.41;;;18.95;40.47
76122;BME280;64853;53.200;6.080;2022-12-29T04:18:49;99501.25;;;18.93;40.49
76122;BME280;64853;53.200;6.080;2022-12-29T04:23:40;99507.09;;;18.92;40.81
76122;BME280;64853;53.200;6.080;2022-12-29T04:28:32;99507.75;;;18.89;40.47
76122;BME280;64853;53.200;6.080;2022-12-29T04:33:23;99513.25;;;18.89;40.51
76122;BME280;64853;53.200;6.080;2022-12-29T04:38:16;99510.03;;;18.87;40.41
76122;BME280;64853;53.200;6.080;2022-12-29T04:43:08;99523.34;;;18.85;40.68
76122;BME280;64853;53.200;6.080;2022-12-29T04:48:00;99531.13;;;18.83;40.46
76122;BME280;64853;53.200;6.080;2022-12-29T04:52:52;99528.69;;;18.81;40.38
76122;BME280;64853;53.200;6.080;2022-12-29T04:57:44;99534.53;;;18.80;40.67
76122;BME280;64853;53.200;6.080;2022-12-29T05:02:36;99534.00;;;18.78;40.46
76122;BME280;64853;53.200;6.080;2022-12-29T05:07:27;99529.63;;;18.76;40.69
76122;BME280;64853;53.200;6.080;2022-12-29T05:12:19;99529.13;;;18.74;40.51
76122;BME280;64853;53.200;6.080;2022-12-29T05:17:12;99538.28;;;18.84;40.69
76122;BME280;64853;53.200;6.080;2022-12-29T05:22:04;99529.81;;;18.98;40.45
76122;BME280;64853;53.200;6.080;2022-12-29T05:26:55;99538.88;;;19.16;40.49
76122;BME280;64853;53.200;6.080;2022-12-29T05:31:46;99538.84;;;19.33;40.26
76122;BME280;64853;53.200;6.080;2022-12-29T05:36:39;99534.91;;;19.52;40.59
76122;BME280;64853;53.200;6.080;2022-12-29T05:41:31;99537.16;;;19.67;40.23
76122;BME280;64853;53.200;6.080;2022-12-29T05:46:22;99535.34;;;19.80;40.30
76122;BME280;64853;53.200;6.080;2022-12-29T05:51:14;99530.88;;;19.96;40.15
76122;BME280;64853;53.200;6.080;2022-12-29T05:56:07;99541.53;;;20.07;40.00
76122;BME280;64853;53.200;6.080;2022-12-29T06:00:58;99536.94;;;20.19;39.99
76122;BME280;64853;53.200;6.080;2022-12-29T06:05:50;99526.28;;;20.30;39.44
76122;BME280;64853;53.200;6.080;2022-12-29T06:10:41;99522.50;;;20.44;39.71
76122;BME280;64853;53.200;6.080;2022-12-29T06:15:34;99537.88;;;20.53;39.19
76122;BME280;64853;53.200;6.080;2022-12-29T06:20:26;99546.59;;;20.64;39.02
76122;BME280;64853;53.200;6.080;2022-12-29T06:25:18;99535.94;;;20.75;39.23
76122;BME280;64853;53.200;6.080;2022-12-29T06:30:11;99541.72;;;20.82;38.81
76122;BME280;64853;53.200;6.080;2022-12-29T06:35:05;99531.88;;;20.94;38.59
76122;BME280;64853;53.200;6.080;2022-12-29T06:39:57;99539.28;;;21.02;39.04
76122;BME280;64853;53.200;6.080;2022-12-29T06:44:48;99529.31;;;21.09;38.51
76122;BME280;64853;53.200;6.080;2022-12-29T06:49:39;99531.06;;;21.14;38.65
76122;BME280;64853;53.200;6.080;2022-12-29T06:54:32;99537.78;;;21.25;38.43
76122;BME280;64853;53.200;6.080;2022-12-29T06:59:24;99558.13;;;21.30;38.54
76122;BME280;64853;53.200;6.080;2022-12-29T07:04:15;99560.31;;;21.36;38.52
76122;BME280;64853;53.200;6.080;2022-12-29T07:09:08;99551.00;;;21.41;37.87
76122;BME280;64853;53.200;6.080;2022-12-29T07:14:01;99541.66;;;21.45;38.08
76122;BME280;64853;53.200;6.080;2022-12-29T07:18:52;99533.94;;;21.51;38.28
76122;BME280;64853;53.200;6.080;2022-12-29T07:23:44;99556.56;;;21.53;37.68
76122;BME280;64853;53.200;6.080;2022-12-29T07:28:36;99553.13;;;21.56;37.55
76122;BME280;64853;53.200;6.080;2022-12-29T07:33:29;99550.00;;;21.58;37.54
76122;BME280;64853;53.200;6.080;2022-12-29T07:38:21;99565.13;;;21.60;37.70
76122;BME280;64853;53.200;6.080;2022-12-29T07:43:13;99567.66;;;21.53;38.12
76122;BME280;64853;53.200;6.080;2022-12-29T07:48:05;99571.69;;;21.43;38.48
76122;BME280;64853;53.200;6.080;2022-12-29T07:52:59;99581.34;;;21.37;38.31
76122;BME280;64853;53.200;6.080;2022-12-29T07:57:52;99581.31;;;21.25;38.42
76122;BME280;64853;53.200;6.080;2022-12-29T08:02:44;99585.66;;;21.14;38.82
76122;BME280;64853;53.200;6.080;2022-12-29T08:07:35;99598.06;;;21.07;38.89
76122;BME280;64853;53.200;6.080;2022-12-29T08:12:28;99593.53;;;21.03;38.95
76122;BME280;64853;53.200;6.080;2022-12-29T08:17:19;99593.53;;;21.03;38.47
76122;BME280;64853;53.200;6.080;2022-12-29T08:22:12;99595.81;;;21.01;38.46
76122;BME280;64853;53.200;6.080;2022-12-29T08:27:04;99594.66;;;21.02;38.34
76122;BME280;64853;53.200;6.080;2022-12-29T08:31:57;99593.06;;;21.01;38.40
76122;BME280;64853;53.200;6.080;2022-12-29T08:36:48;99597.97;;;20.95;38.54
76122;BME280;64853;53.200;6.080;2022-12-29T08:41:40;99608.63;;;20.84;38.99
76122;BME280;64853;53.200;6.080;2022-12-29T08:46:31;99590.47;;;20.74;39.06
76122;BME280;64853;53.200;6.080;2022-12-29T08:51:24;99608.28;;;20.65;39.27
76122;BME280;64853;53.200;6.080;2022-12-29T08:56:15;99599.22;;;20.55;39.36
76122;BME280;64853;53.200;6.080;2022-12-29T09:01:07;99606.28;;;20.44;39.51
76122;BME280;64853;53.200;6.080;2022-12-29T09:05:58;99607.16;;;20.36;39.60
76122;BME280;64853;53.200;6.080;2022-12-29T09:10:51;99605.19;;;20.36;39.10
76122;BME280;64853;53.200;6.080;2022-12-29T09:15:43;99607.31;;;20.31;39.72
76122;BME280;64853;53.200;6.080;2022-12-29T09:20:34;99612.69;;;20.27;39.19
76122;BME280;64853;53.200;6.080;2022-12-29T09:25:27;99616.94;;;20.25;39.51
76122;BME280;64853;53.200;6.080;2022-12-29T09:30:21;99634.22;;;20.22;39.37
76122;BME280;64853;53.200;6.080;2022-12-29T09:35:13;99639.75;;;20.22;39.32
76122;BME280;64853;53.200;6.080;2022-12-29T09:40:06;99638.09;;;20.20;39.57
76122;BME280;64853;53.200;6.080;2022-12-29T09:45:10;99650.66;;;20.18;39.26
76122;BME280;64853;53.200;6.080;2022-12-29T09:50:16;99657.66;;;20.15;39.75
76122;BME280;64853;53.200;6.080;2022-12-29T09:55:14;99640.31;;;19.97;39.65
76122;BME280;64853;53.200;6.080;2022-12-29T10:00:14;99663.19;;;20.15;39.66
76122;BME280;64853;53.200;6.080;2022-12-29T10:05:20;99683.03;;;20.17;40.14
76122;BME280;64853;53.200;6.080;2022-12-29T10:10:19;99701.72;;;20.20;40.44
76122;BME280;64853;53.200;6.080;2022-12-29T10:15:20;99718.78;;;20.31;41.07
76122;BME280;64853;53.200;6.080;2022-12-29T10:20:31;99722.03;;;20.33;42.19
76122;BME280;64853;53.200;6.080;2022-12-29T10:25:25;99723.84;;;20.29;42.06
76122;BME280;64853;53.200;6.080;2022-12-29T10:30:17;99742.53;;;20.41;43.73
76122;BME280;64853;53.200;6.080;2022-12-29T10:35:13;99746.09;;;20.50;47.36
76122;BME280;64853;53.200;6.080;2022-12-29T10:40:18;99733.41;;;20.32;44.04
76122;BME280;64853;53.200;6.080;2022-12-29T10:45:13;99757.19;;;20.33;43.23
76122;BME280;64853;53.200;6.080;2022-12-29T10:50:06;99772.66;;;20.25;43.27
76122;BME280;64853;53.200;6.080;2022-12-29T10:55:00;99772.50;;;20.13;42.22
76122;BME280;64853;53.200;6.080;2022-12-29T10:59:55;99773.47;;;20.08;42.12
76122;BME280;64853;53.200;6.080;2022-12-29T11:04:51;99793.16;;;20.07;41.45
76122;BME280;64853;53.200;6.080;2022-12-29T11:09:44;99791.38;;;20.02;42.42
76122;BME280;64853;53.200;6.080;2022-12-29T11:14:36;99799.53;;;20.07;42.35
76122;BME280;64853;53.200;6.080;2022-12-29T11:19:32;99807.81;;;20.16;42.56
76122;BME280;64853;53.200;6.080;2022-12-29T11:24:26;99808.31;;;20.09;42.31
76122;BME280;64853;53.200;6.080;2022-12-29T11:29:24;99826.34;;;20.33;41.77
76122;BME280;64853;53.200;6.080;2022-12-29T11:34:18;99827.81;;;20.39;42.12
76122;BME280;64853;53.200;6.080;2022-12-29T11:39:32;99843.75;;;20.42;42.39
76122;BME280;64853;53.200;6.080;2022-12-29T11:44:24;99860.34;;;20.51;41.63
76122;BME280;64853;53.200;6.080;2022-12-29T11:49:20;99879.19;;;20.58;42.10
76122;BME280;64853;53.200;6.080;2022-12-29T11:54:13;99877.25;;;20.58;41.81
76122;BME280;64853;53.200;6.080;2022-12-29T11:59:36;99895.81;;;20.58;41.67
76122;BME280;64853;53.200;6.080;2022-12-29T12:04:31;99894.69;;;20.50;41.36
76122;BME280;64853;53.200;6.080;2022-12-29T12:09:30;99913.75;;;20.51;41.12
76122;BME280;64853;53.200;6.080;2022-12-29T12:14:27;99916.19;;;20.44;41.70
76122;BME280;64853;53.200;6.080;2022-12-29T12:19:32;99930.81;;;20.45;41.20
76122;BME280;64853;53.200;6.080;2022-12-29T12:24:34;99941.41;;;20.51;41.00
76122;BME280;64853;53.200;6.080;2022-12-29T12:29:33;99949.88;;;20.46;39.86
76122;BME280;64853;53.200;6.080;2022-12-29T12:34:32;99948.66;;;20.04;36.92
76122;BME280;64853;53.200;6.080;2022-12-29T12:39:27;99955.31;;;19.94;37.46
76122;BME280;64853;53.200;6.080;2022-12-29T12:44:27;99960.75;;;20.25;37.52
76122;BME280;64853;53.200;6.080;2022-12-29T12:49:29;99963.06;;;20.41;37.68
76122;BME280;64853;53.200;6.080;2022-12-29T12:54:36;99968.75;;;20.44;38.64
76122;BME280;64853;53.200;6.080;2022-12-29T12:59:38;99982.75;;;20.39;39.02
76122;BME280;64853;53.200;6.080;2022-12-29T13:04:51;99985.38;;;20.35;39.08
76122;BME280;64853;53.200;6.080;2022-12-29T13:09:50;99980.63;;;20.36;39.48
76122;BME280;64853;53.200;6.080;2022-12-29T13:14:56;99985.03;;;20.37;39.71
76122;BME280;64853;53.200;6.080;2022-12-29T13:19:55;99995.09;;;20.33;40.00
76122;BME280;64853;53.200;6.080;2022-12-29T13:25:00;100008.44;;;20.31;40.27
76122;BME280;64853;53.200;6.080;2022-12-29T13:29:59;100017.84;;;20.21;40.19
76122;BME280;64853;53.200;6.080;2022-12-29T13:35:03;100027.25;;;20.11;40.89
76122;BME280;64853;53.200;6.080;2022-12-29T13:40:02;100001.50;;;19.93;41.02
76122;BME280;64853;53.200;6.080;2022-12-29T13:44:58;100034.72;;;20.02;40.65
76122;BME280;64853;53.200;6.080;2022-12-29T13:49:51;100029.19;;;20.02;40.81
76122;BME280;64853;53.200;6.080;2022-12-29T13:54:56;100034.53;;;19.98;41.46
76122;BME280;64853;53.200;6.080;2022-12-29T13:59:52;100049.97;;;19.91;41.11
76122;BME280;64853;53.200;6.080;2022-12-29T14:05:02;100055.00;;;19.89;41.58
76122;BME280;64853;53.200;6.080;2022-12-29T14:09:56;100055.16;;;19.83;41.83
76122;BME280;64853;53.200;6.080;2022-12-29T14:14:48;100060.50;;;19.80;41.37
76122;BME280;64853;53.200;6.080;2022-12-29T14:19:42;100065.03;;;19.76;41.85
76122;BME280;64853;53.200;6.080;2022-12-29T14:24:52;100064.72;;;19.77;41.81
76122;BME280;64853;53.200;6.080;2022-12-29T14:29:45;100075.78;;;19.77;41.91
76122;BME280;64853;53.200;6.080;2022-12-29T14:34:38;100074.28;;;19.71;42.28
76122;BME280;64853;53.200;6.080;2022-12-29T14:39:33;100072.94;;;19.69;42.07
76122;BME280;64853;53.200;6.080;2022-12-29T14:44:26;100064.97;;;19.67;42.06
76122;BME280;64853;53.200;6.080;2022-12-29T14:49:21;100088.06;;;19.62;42.33
76122;BME280;64853;53.200;6.080;2022-12-29T14:54:44;100091.16;;;19.61;42.07
76122;BME280;64853;53.200;6.080;2022-12-29T14:59:36;100086.25;;;19.58;42.29
76122;BME280;64853;53.200;6.080;2022-12-29T15:04:31;100089.09;;;19.53;42.58
76122;BME280;64853;53.200;6.080;2022-12-29T15:09:27;100087.16;;;19.53;42.58
76122;BME280;64853;53.200;6.080;2022-12-29T15:14:36;100090.03;;;19.48;42.68
76122;BME280;64853;53.200;6.080;2022-12-29T15:19:30;100084.03;;;19.46;42.47
76122;BME280;64853;53.200;6.080;2022-12-29T15:24:23;100088.25;;;19.43;42.59
76122;BME280;64853;53.200;6.080;2022-12-29T15:29:30;100097.34;;;19.44;42.85
76122;BME280;64853;53.200;6.080;2022-12-29T15:34:21;100099.63;;;19.42;43.08
76122;BME280;64853;53.200;6.080;2022-12-29T15:39:25;100099.78;;;19.45;43.55
76122;BME280;64853;53.200;6.080;2022-12-29T15:44:21;100110.50;;;19.61;43.63
76122;BME280;64853;53.200;6.080;2022-12-29T15:49:15;100111.16;;;19.67;43.57
76122;BME280;64853;53.200;6.080;2022-12-29T15:54:15;100136.72;;;19.72;43.15
76122;BME280;64853;53.200;6.080;2022-12-29T15:59:22;100146.13;;;19.71;43.51
76122;BME280;64853;53.200;6.080;2022-12-29T16:04:14;100137.84;;;19.71;43.77
76122;BME280;64853;53.200;6.080;2022-12-29T16:09:11;100140.78;;;19.75;43.75
76122;BME280;64853;53.200;6.080;2022-12-29T16:14:07;100120.78;;;19.69;43.91
76122;BME280;64853;53.200;6.080;2022-12-29T16:19:06;100126.19;;;19.83;44.43
76122;BME280;64853;53.200;6.080;2022-12-29T16:24:02;100127.03;;;19.83;44.43
76122;BME280;64853;53.200;6.080;2022-12-29T16:28:58;100120.88;;;19.87;43.91
76122;BME280;64853;53.200;6.080;2022-12-29T16:33:53;100132.41;;;19.89;44.21
76122;BME280;64853;53.200;6.080;2022-12-29T16:38:46;100126.19;;;19.83;43.61
76122;BME280;64853;53.200;6.080;2022-12-29T16:43:37;100131.09;;;19.86;43.77
76122;BME280;64853;53.200;6.080;2022-12-29T16:48:33;100130.34;;;19.94;44.06
76122;BME280;64853;53.200;6.080;2022-12-29T16:53:28;100140.44;;;19.99;44.10
76122;BME280;64853;53.200;6.080;2022-12-29T16:58:25;100148.91;;;20.02;44.02
76122;BME280;64853;53.200;6.080;2022-12-29T17:03:19;100153.13;;;20.00;43.94
76122;BME280;64853;53.200;6.080;2022-12-29T17:08:17;100157.53;;;20.01;44.07
76122;BME280;64853;53.200;6.080;2022-12-29T17:13:12;100171.66;;;19.99;43.57
76122;BME280;64853;53.200;6.080;2022-12-29T17:18:06;100166.59;;;19.93;43.60
76122;BME280;64853;53.200;6.080;2022-12-29T17:23:00;100184.75;;;19.85;43.44
76122;BME280;64853;53.200;6.080;2022-12-29T17:27:53;100184.91;;;19.80;43.57
76122;BME280;64853;53.200;6.080;2022-12-29T17:32:49;100192.34;;;19.79;43.81
76122;BME280;64853;53.200;6.080;2022-12-29T17:37:43;100195.25;;;19.74;43.53
76122;BME280;64853;53.200;6.080;2022-12-29T17:42:38;100190.69;;;19.70;43.76
76122;BME280;64853;53.200;6.080;2022-12-29T17:47:32;100199.59;;;19.67;43.50
76122;BME280;64853;53.200;6.080;2022-12-29T17:52:26;100212.09;;;19.64;43.44
76122;BME280;64853;53.200;6.080;2022-12-29T17:57:19;100215.50;;;19.61;43.34
76122;BME280;64853;53.200;6.080;2022-12-29T18:02:26;100210.59;;;19.58;43.40
76122;BME280;64853;53.200;6.080;2022-12-29T18:07:19;100220.28;;;19.55;43.71
76122;BME280;64853;53.200;6.080;2022-12-29T18:12:27;100215.88;;;19.54;43.29
76122;BME280;64853;53.200;6.080;2022-12-29T18:17:19;100234.91;;;19.56;43.33
76122;BME280;64853;53.200;6.080;2022-12-29T18:22:10;100235.66;;;19.61;42.99
76122;BME280;64853;53.200;6.080;2022-12-29T18:27:11;100248.22;;;19.68;43.30
76122;BME280;64853;53.200;6.080;2022-12-29T18:32:05;100252.28;;;19.70;43.12
76122;BME280;64853;53.200;6.080;2022-12-29T18:36:57;100268.06;;;19.70;42.86
76122;BME280;64853;53.200;6.080;2022-12-29T18:41:49;100277.78;;;19.67;43.29
76122;BME280;64853;53.200;6.080;2022-12-29T18:46:43;100282.81;;;19.65;42.90
76122;BME280;64853;53.200;6.080;2022-12-29T18:51:36;100285.09;;;19.63;42.55
76122;BME280;64853;53.200;6.080;2022-12-29T18:56:27;100282.31;;;19.63;42.78
76122;BME280;64853;53.200;6.080;2022-12-29T19:01:20;100282.94;;;19.60;42.76
76122;BME280;64853;53.200;6.080;2022-12-29T19:06:12;100294.19;;;19.63;42.60
76122;BME280;64853;53.200;6.080;2022-12-29T19:11:05;100303.50;;;19.68;42.49
76122;BME280;64853;53.200;6.080;2022-12-29T19:15:57;100307.56;;;19.70;42.51
76122;BME280;64853;53.200;6.080;2022-12-29T19:20:49;100307.34;;;19.80;43.04
76122;BME280;64853;53.200;6.080;2022-12-29T19:25:42;100304.53;;;19.94;43.11
76122;BME280;64853;53.200;6.080;2022-12-29T19:30:35;100300.16;;;20.02;43.04
76122;BME280;64853;53.200;6.080;2022-12-29T19:35:28;100309.63;;;20.01;42.81
76122;BME280;64853;53.200;6.080;2022-12-29T19:40:21;100304.34;;;20.13;42.84
76122;BME280;64853;53.200;6.080;2022-12-29T19:45:14;100313.19;;;20.24;42.71
76122;BME280;64853;53.200;6.080;2022-12-29T19:50:08;100304.44;;;20.31;42.46
76122;BME280;64853;53.200;6.080;2022-12-29T19:55:01;100310.69;;;20.36;42.41
76122;BME280;64853;53.200;6.080;2022-12-29T19:59:53;100321.94;;;20.40;41.75
76122;BME280;64853;53.200;6.080;2022-12-29T20:04:44;100326.81;;;20.43;42.01
76122;BME280;64853;53.200;6.080;2022-12-29T20:09:40;100327.66;;;20.44;41.83
76122;BME280;64853;53.200;6.080;2022-12-29T20:14:32;100327.34;;;20.45;42.16
76122;BME280;64853;53.200;6.080;2022-12-29T20:19:23;100330.94;;;20.46;41.93
76122;BME280;64853;53.200;6.080;2022-12-29T20:24:15;100330.78;;;20.51;42.08
76122;BME280;64853;53.200;6.080;2022-12-29T20:29:09;100338.78;;;20.52;41.82
76122;BME280;64853;53.200;6.080;2022-12-29T20:34:01;100349.53;;;20.54;41.55
76122;BME280;64853;53.200;6.080;2022-12-29T20:38:55;100364.88;;;20.60;41.19
76122;BME280;64853;53.200;6.080;2022-12-29T20:43:46;100363.44;;;20.63;41.24
76122;BME280;64853;53.200;6.080;2022-12-29T20:48:40;100364.22;;;20.63;41.64
76122;BME280;64853;53.200;6.080;2022-12-29T20:53:32;100366.19;;;20.63;41.10
76122;BME280;64853;53.200;6.080;2022-12-29T20:58:24;100374.50;;;20.63;41.72
76122;BME280;64853;53.200;6.080;2022-12-29T21:03:16;100379.19;;;20.62;41.72
76122;BME280;64853;53.200;6.080;2022-12-29T21:08:08;100375.63;;;20.62;41.05
76122;BME280;64853;53.200;6.080;2022-12-29T21:13:01;100391.22;;;20.58;41.04
76122;BME280;64853;53.200;6.080;2022-12-29T21:17:52;100389.34;;;20.44;41.58
76122;BME280;64853;53.200;6.080;2022-12-29T21:22:44;100384.69;;;20.31;41.65
76122;BME280;64853;53.200;6.080;2022-12-29T21:27:37;100394.72;;;20.27;41.62
76122;BME280;64853;53.200;6.080;2022-12-29T21:32:32;100388.19;;;20.23;40.89
76122;BME280;64853;53.200;6.080;2022-12-29T21:37:23;100393.84;;;20.17;40.90
76122;BME280;64853;53.200;6.080;2022-12-29T21:42:15;100388.75;;;20.11;41.20
76122;BME280;64853;53.200;6.080;2022-12-29T21:47:09;100396.03;;;20.07;40.69
76122;BME280;64853;53.200;6.080;2022-12-29T21:52:01;100402.84;;;20.00;41.13
76122;BME280;64853;53.200;6.080;2022-12-29T21:56:52;100412.78;;;19.88;40.91
76122;BME280;64853;53.200;6.080;2022-12-29T22:01:46;100428.13;;;19.94;40.92
76122;BME280;64853;53.200;6.080;2022-12-29T22:06:57;100432.13;;;19.88;41.16
76122;BME280;64853;53.200;6.080;2022-12-29T22:12:05;100444.63;;;19.85;40.89
76122;BME280;64853;53.200;6.080;2022-12-29T22:17:14;100448.34;;;19.80;40.93
76122;BME280;64853;53.200;6.080;2022-12-29T22:22:07;100461.13;;;19.76;40.86
76122;BME280;64853;53.200;6.080;2022-12-29T22:26:59;100482.22;;;19.72;40.86
76122;BME280;64853;53.200;6.080;2022-12-29T22:31:50;100487.22;;;19.70;40.62
76122;BME280;64853;53.200;6.080;2022-12-29T22:36:41;100508.03;;;19.68;40.87
76122;BME280;64853;53.200;6.080;2022-12-29T22:41:34;100519.69;;;19.64;40.79
76122;BME280;64853;53.200;6.080;2022-12-29T22:46:26;100521.72;;;19.59;40.97
76122;BME280;64853;53.200;6.080;2022-12-29T22:51:17;100532.78;;;19.59;40.62
76122;BME280;64853;53.200;6.080;2022-12-29T22:56:10;100531.75;;;19.55;41.06
76122;BME280;64853;53.200;6.080;2022-12-29T23:01:03;100541.44;;;19.52;40.94
76122;BME280;64853;53.200;6.080;2022-12-29T23:05:56;100538.47;;;19.48;40.49
76122;BME280;64853;53.200;6.080;2022-12-29T23:10:47;100544.63;;;19.45;40.63
76122;BME280;64853;53.200;6.080;2022-12-29T23:15:39;100549.63;;;19.43;40.70
76122;BME280;64853;53.200;6.080;2022-12-29T23:20:32;100556.88;;;19.39;40.63
76122;BME280;64853;53.200;6.080;2022-12-29T23:25:23;100564.66;;;19.37;40.66
76122;BME280;64853;53.200;6.080;2022-12-29T23:30:15;100568.03;;;19.34;40.42
76122;BME280;64853;53.200;6.080;2022-12-29T23:35:07;100578.03;;;19.30;40.89
76122;BME280;64853;53.200;6.080;2022-12-29T23:40:00;100574.78;;;19.28;40.40
76122;BME280;64853;53.200;6.080;2022-12-29T23:44:51;100579.44;;;19.27;40.68
76122;BME280;64853;53.200;6.080;2022-12-29T23:49:43;100585.59;;;19.24;40.44
76122;BME280;64853;53.200;6.080;2022-12-29T23:54:35;100585.38;;;19.21;40.50
76122;BME280;64853;53.200;6.080;2022-12-29T23:59:28;100595.59;;;19.20;40.71
